createdAt,value
2023-04-29T00:01:14.720Z,98704.97
2023-04-29T00:03:41.394Z,98707.13
2023-04-29T00:06:08.511Z,98705.03
2023-04-29T00:08:35.056Z,98707.06
2023-04-29T00:11:01.521Z,98704.47
2023-04-29T00:13:27.929Z,98711.56
2023-04-29T00:15:54.390Z,98711.00
2023-04-29T00:18:20.921Z,98718.16
2023-04-29T00:20:47.804Z,98700.13
2023-04-29T00:23:14.229Z,98710.50
2023-04-29T00:25:40.662Z,98702.16
2023-04-29T00:28:07.098Z,98700.81
2023-04-29T00:30:33.846Z,98704.94
2023-04-29T00:33:00.386Z,98700.94
2023-04-29T00:35:26.874Z,98698.56
2023-04-29T00:37:53.312Z,98691.50
2023-04-29T00:40:19.712Z,98690.84
2023-04-29T00:42:46.184Z,98689.88
2023-04-29T00:45:12.612Z,98693.16
2023-04-29T00:47:39.100Z,98689.31
2023-04-29T00:50:05.596Z,98694.38
2023-04-29T00:52:32.107Z,98698.59
2023-04-29T00:54:58.586Z,98689.31
2023-04-29T00:57:24.998Z,98696.06
2023-04-29T00:59:51.592Z,98690.66
2023-04-29T01:02:18.720Z,98688.72
2023-04-29T01:04:45.427Z,98694.88
2023-04-29T01:07:11.991Z,98689.56
2023-04-29T01:09:38.530Z,98693.06
2023-04-29T01:12:05.037Z,98692.94
2023-04-29T01:14:31.459Z,98691.38
2023-04-29T01:16:57.914Z,98692.22
2023-04-29T01:19:24.380Z,98682.59
2023-04-29T01:21:50.824Z,98683.31
2023-04-29T01:24:17.237Z,98682.47
2023-04-29T01:26:43.782Z,98691.13
2023-04-29T01:29:10.217Z,98684.16
2023-04-29T01:31:37.266Z,98686.94
2023-04-29T01:34:05.038Z,98685.13
2023-04-29T01:36:31.452Z,98681.63
2023-04-29T01:38:58.300Z,98686.81
2023-04-29T01:41:24.970Z,98686.94
2023-04-29T01:43:51.374Z,98688.63
2023-04-29T01:46:17.968Z,98691.25
2023-04-29T01:48:44.508Z,98687.88
2023-04-29T01:51:10.984Z,98684.50
2023-04-29T01:53:37.589Z,98688.97
2023-04-29T01:56:04.133Z,98689.81
2023-04-29T01:58:30.594Z,98683.78
2023-04-29T02:00:57.159Z,98688.13
2023-04-29T02:03:23.805Z,98685.34
2023-04-29T02:05:50.363Z,98688.84
2023-04-29T02:08:16.834Z,98686.19
2023-04-29T02:10:43.336Z,98687.03
2023-04-29T02:13:10.405Z,98687.16
2023-04-29T02:15:36.805Z,98685.59
2023-04-29T02:18:03.270Z,98692.34
2023-04-29T02:20:32.183Z,98684.25
2023-04-29T02:22:58.686Z,98684.47
2023-04-29T02:25:25.178Z,98689.53
2023-04-29T02:27:51.599Z,98689.53
2023-04-29T02:30:18.047Z,98688.69
2023-04-29T02:32:44.528Z,98683.28
2023-04-29T02:35:11.155Z,98681.09
2023-04-29T02:37:37.632Z,98680.88
2023-04-29T02:40:04.067Z,98681.72
2023-04-29T02:42:32.820Z,98685.09
2023-04-29T02:44:59.205Z,98683.16
2023-04-29T02:47:25.948Z,98683.28
2023-04-29T02:49:52.519Z,98678.00
2023-04-29T02:52:19.158Z,98673.66
2023-04-29T02:54:45.634Z,98670.91
2023-04-29T02:57:12.063Z,98664.75
2023-04-29T02:59:38.516Z,98667.53
2023-04-29T03:02:05.049Z,98660.41
2023-04-29T03:04:31.824Z,98666.69
2023-04-29T03:06:58.299Z,98666.69
2023-04-29T03:09:24.834Z,98674.84
2023-04-29T03:11:51.274Z,98669.91
2023-04-29T03:14:19.981Z,98672.56
2023-04-29T03:16:46.587Z,98675.94
2023-04-29T03:19:13.058Z,98675.75
2023-04-29T03:21:39.514Z,98682.47
2023-04-29T03:24:05.953Z,98675.00
2023-04-29T03:26:32.350Z,98670.69
2023-04-29T03:28:58.925Z,98677.44
2023-04-29T03:31:26.387Z,98669.28
2023-04-29T03:33:52.922Z,98670.75
2023-04-29T03:36:19.404Z,98673.41
2023-04-29T03:38:45.813Z,98677.72
2023-04-29T03:41:12.295Z,98672.66
2023-04-29T03:43:38.756Z,98675.19
2023-04-29T03:46:05.171Z,98674.13
2023-04-29T03:48:31.638Z,98675.81
2023-04-29T03:50:58.034Z,98678.47
2023-04-29T03:53:24.486Z,98681.09
2023-04-29T03:55:50.898Z,98677.50
2023-04-29T03:58:17.352Z,98683.63
2023-04-29T04:00:43.896Z,98689.78
2023-04-29T04:03:10.443Z,98684.47
2023-04-29T04:05:36.940Z,98677.50
2023-04-29T04:08:03.327Z,98674.13
2023-04-29T04:10:29.763Z,98675.94
2023-04-29T04:12:56.213Z,98685.66
2023-04-29T04:15:22.686Z,98686.41
2023-04-29T04:17:49.176Z,98687.84
2023-04-29T04:20:15.655Z,98694.84
2023-04-29T04:22:42.572Z,98694.84
2023-04-29T04:25:09.021Z,98690.50
2023-04-29T04:27:35.449Z,98690.28
2023-04-29T04:30:02.128Z,98691.97
2023-04-29T04:32:28.565Z,98688.34
2023-04-29T04:34:56.008Z,98693.03
2023-04-29T04:37:22.445Z,98690.38
2023-04-29T04:39:49.100Z,98695.34
2023-04-29T04:42:15.678Z,98698.72
2023-04-29T04:44:42.131Z,98693.53
2023-04-29T04:47:08.573Z,98690.75
2023-04-29T04:49:34.981Z,98700.63
2023-04-29T04:52:01.710Z,98700.03
2023-04-29T04:54:28.154Z,98696.78
2023-04-29T04:56:54.533Z,98696.53
2023-04-29T04:59:20.983Z,98697.59
2023-04-29T05:01:47.402Z,98687.25
2023-04-29T05:04:13.950Z,98697.00
2023-04-29T05:06:40.444Z,98694.34
2023-04-29T05:09:07.279Z,98687.84
2023-04-29T05:11:33.744Z,98696.53
2023-04-29T05:14:00.175Z,98692.91
2023-04-29T05:16:26.611Z,98692.91
2023-04-29T05:18:53.044Z,98689.31
2023-04-29T05:21:19.592Z,98692.81
2023-04-29T05:23:45.991Z,98699.44
2023-04-29T05:26:12.454Z,98696.78
2023-04-29T05:28:38.880Z,98696.78
2023-04-29T05:31:05.281Z,98696.06
2023-04-29T05:33:31.760Z,98698.25
2023-04-29T05:35:58.429Z,98698.69
2023-04-29T05:38:24.908Z,98705.44
2023-04-29T05:40:51.469Z,98711.31
2023-04-29T05:43:17.889Z,98708.91
2023-04-29T05:45:44.333Z,98708.91
2023-04-29T05:48:10.932Z,98713.22
2023-04-29T05:50:37.411Z,98715.88
2023-04-29T05:53:04.548Z,98723.72
2023-04-29T05:55:33.303Z,98712.28
2023-04-29T05:58:00.076Z,98719.88
2023-04-29T06:00:26.585Z,98717.94
2023-04-29T06:02:58.736Z,98728.91
2023-04-29T06:05:25.832Z,98720.84
2023-04-29T06:07:52.484Z,98724.03
2023-04-29T06:10:18.981Z,98730.47
2023-04-29T06:12:45.381Z,98727.84
2023-04-29T06:15:11.759Z,98730.41
2023-04-29T06:17:38.268Z,98723.19
2023-04-29T06:20:04.808Z,98725.63
2023-04-29T06:22:31.260Z,98727.06
2023-04-29T06:24:57.688Z,98733.59
2023-04-29T06:27:24.133Z,98721.31
2023-04-29T06:29:50.755Z,98724.91
2023-04-29T06:32:17.673Z,98727.69
2023-04-29T06:34:45.367Z,98722.16
2023-04-29T06:37:11.848Z,98730.22
2023-04-29T06:39:38.262Z,98727.22
2023-04-29T06:42:04.784Z,98726.75
2023-04-29T06:44:31.223Z,98728.44
2023-04-29T06:46:57.726Z,98731.59
2023-04-29T06:49:24.455Z,98733.75
2023-04-29T06:51:50.926Z,98727.47
2023-04-29T06:54:17.725Z,98735.31
2023-04-29T06:56:44.162Z,98733.06
2023-04-29T06:59:10.626Z,98724.72
2023-04-29T07:01:37.214Z,98721.13
2023-04-29T07:04:03.946Z,98731.13
2023-04-29T07:06:30.424Z,98735.09
2023-04-29T07:08:57.143Z,98728.06
2023-04-29T07:11:23.651Z,98729.28
2023-04-29T07:13:50.370Z,98719.59
2023-04-29T07:16:16.949Z,98722.91
2023-04-29T07:18:43.784Z,98720.84
2023-04-29T07:21:11.205Z,98719.53
2023-04-29T07:23:37.678Z,98717.78
2023-04-29T07:26:04.105Z,98714.16
2023-04-29T07:28:30.909Z,98718.84
2023-04-29T07:30:57.386Z,98725.75
2023-04-29T07:33:23.801Z,98719.84
2023-04-29T07:35:50.189Z,98725.50
2023-04-29T07:38:16.728Z,98726.06
2023-04-29T07:40:43.170Z,98730.44
2023-04-29T07:43:09.619Z,98730.53
2023-04-29T07:45:36.980Z,98728.03
2023-04-29T07:48:03.521Z,98728.66
2023-04-29T07:50:29.970Z,98730.72
2023-04-29T07:52:56.466Z,98732.81
2023-04-29T07:55:23.002Z,98730.16
2023-04-29T07:57:49.384Z,98733.16
2023-04-29T08:00:15.875Z,98731.84
2023-04-29T08:02:42.459Z,98726.00
2023-04-29T08:05:09.304Z,98729.88
2023-04-29T08:07:35.903Z,98741.16
2023-04-29T08:10:02.362Z,98739.97
2023-04-29T08:12:28.889Z,98744.03
2023-04-29T08:14:55.507Z,98743.69
2023-04-29T08:17:22.289Z,98740.78
2023-04-29T08:19:49.405Z,98744.00
2023-04-29T08:22:17.224Z,98742.69
2023-04-29T08:24:43.700Z,98742.69
2023-04-29T08:27:10.120Z,98743.88
2023-04-29T08:29:36.567Z,98739.34
2023-04-29T08:32:03.040Z,98744.09
2023-04-29T08:34:29.800Z,98748.19
2023-04-29T08:36:56.189Z,98738.63
2023-04-29T08:39:22.604Z,98745.38
2023-04-29T08:41:49.057Z,98743.44
2023-04-29T08:44:15.425Z,98742.25
2023-04-29T08:46:41.913Z,98750.44
2023-04-29T08:49:08.361Z,98750.56
2023-04-29T08:51:34.805Z,98746.53
2023-04-29T08:54:01.226Z,98753.50
2023-04-29T08:56:28.659Z,98748.44
2023-04-29T08:58:55.628Z,98750.06
2023-04-29T09:01:23.514Z,98757.00
2023-04-29T09:03:50.351Z,98759.75
2023-04-29T09:06:17.058Z,98758.34
2023-04-29T09:08:43.517Z,98760.53
2023-04-29T09:11:10.022Z,98758.59
2023-04-29T09:13:36.528Z,98762.69
2023-04-29T09:16:03.024Z,98764.25
2023-04-29T09:18:29.444Z,98767.50
2023-04-29T09:20:55.886Z,98764.47
2023-04-29T09:23:22.795Z,98759.25
2023-04-29T09:25:49.347Z,98781.63
2023-04-29T09:28:15.950Z,98779.38
2023-04-29T09:30:42.371Z,98781.09
2023-04-29T09:33:09.971Z,98775.06
2023-04-29T09:35:36.464Z,98765.28
2023-04-29T09:38:02.948Z,98759.47
2023-04-29T09:40:29.939Z,98759.78
2023-04-29T09:42:56.479Z,98762.44
2023-04-29T09:45:22.908Z,98761.47
2023-04-29T09:47:51.422Z,98763.47
2023-04-29T09:50:17.915Z,98761.97
2023-04-29T09:52:44.445Z,98762.84
2023-04-29T09:55:10.869Z,98761.00
2023-04-29T09:57:37.330Z,98762.38
2023-04-29T10:00:03.736Z,98761.56
2023-04-29T10:02:30.286Z,98754.88
2023-04-29T10:04:57.035Z,98749.03
2023-04-29T10:07:23.737Z,98753.72
2023-04-29T10:09:50.239Z,98757.97
2023-04-29T10:12:16.646Z,98753.31
2023-04-29T10:14:43.074Z,98749.69
2023-04-29T10:17:10.069Z,98741.09
2023-04-29T10:19:36.526Z,98748.56
2023-04-29T10:22:02.927Z,98734.28
2023-04-29T10:24:29.313Z,98747.59
2023-04-29T10:26:55.808Z,98740.84
2023-04-29T10:29:22.190Z,98733.56
2023-04-29T10:31:48.867Z,98738.09
2023-04-29T10:34:17.829Z,98735.59
2023-04-29T10:36:44.242Z,98736.00
2023-04-29T10:39:10.755Z,98728.59
2023-04-29T10:41:37.179Z,98718.06
2023-04-29T10:44:04.201Z,98724.66
2023-04-29T10:46:30.833Z,98728.03
2023-04-29T10:48:57.711Z,98717.53
2023-04-29T10:51:24.175Z,98715.47
2023-04-29T10:53:50.684Z,98718.22
2023-04-29T10:56:17.148Z,98712.69
2023-04-29T10:58:43.590Z,98701.75
2023-04-29T11:01:10.363Z,98709.09
2023-04-29T11:03:37.017Z,98701.97
2023-04-29T11:06:03.620Z,98707.84
2023-04-29T11:08:30.096Z,98702.47
2023-04-29T11:10:56.539Z,98707.78
2023-04-29T11:13:22.963Z,98700.50
2023-04-29T11:15:49.969Z,98704.28
2023-04-29T11:18:16.464Z,98703.31
2023-04-29T11:20:42.953Z,98705.25
2023-04-29T11:23:09.411Z,98704.84
2023-04-29T11:25:36.913Z,98702.88
2023-04-29T11:28:05.215Z,98701.59
2023-04-29T11:30:31.651Z,98698.38
2023-04-29T11:32:58.177Z,98696.56
2023-04-29T11:35:24.692Z,98691.25
2023-04-29T11:37:51.217Z,98686.50
2023-04-29T11:40:17.658Z,98686.75
2023-04-29T11:42:44.477Z,98679.47
2023-04-29T11:45:10.837Z,98688.28
2023-04-29T11:47:37.627Z,98687.00
2023-04-29T11:50:04.069Z,98691.28
2023-04-29T11:52:30.510Z,98697.91
2023-04-29T11:54:59.249Z,98697.50
2023-04-29T11:57:25.672Z,98694.84
2023-04-29T11:59:52.183Z,98688.63
2023-04-29T12:02:19.774Z,98697.16
2023-04-29T12:04:46.403Z,98695.28
2023-04-29T12:07:13.184Z,98691.91
2023-04-29T12:09:40.094Z,98693.88
2023-04-29T12:12:07.998Z,98689.75
2023-04-29T12:14:34.666Z,98697.50
2023-04-29T12:17:01.352Z,98697.75
2023-04-29T12:19:27.751Z,98702.13
2023-04-29T12:21:54.257Z,98703.19
2023-04-29T12:24:21.890Z,98701.66
2023-04-29T12:26:48.527Z,98699.53
2023-04-29T12:29:15.010Z,98699.06
2023-04-29T12:31:41.442Z,98703.25
2023-04-29T12:34:10.051Z,98716.81
2023-04-29T12:36:37.306Z,98706.66
2023-04-29T12:39:03.768Z,98717.25
2023-04-29T12:41:30.300Z,98760.19
2023-04-29T12:43:56.705Z,98747.28
2023-04-29T12:46:23.283Z,98748.25
2023-04-29T12:48:49.860Z,98731.19
2023-04-29T12:51:16.329Z,98721.00
2023-04-29T12:53:42.804Z,98719.03
2023-04-29T12:56:09.262Z,98709.16
2023-04-29T12:58:35.734Z,98703.06
2023-04-29T13:01:02.675Z,98693.19
2023-04-29T13:03:29.346Z,98692.59
2023-04-29T13:05:55.856Z,98690.03
2023-04-29T13:08:22.276Z,98694.78
2023-04-29T13:10:48.878Z,98688.19
2023-04-29T13:13:15.577Z,98686.19
2023-04-29T13:15:42.046Z,98690.44
2023-04-29T13:18:08.496Z,98680.22
2023-04-29T13:20:40.802Z,98680.44
2023-04-29T13:23:08.011Z,98684.22
2023-04-29T13:25:34.597Z,98684.63
2023-04-29T13:28:00.988Z,98688.81
2023-04-29T13:30:29.512Z,98684.63
2023-04-29T13:32:59.858Z,98688.28
2023-04-29T13:35:30.653Z,98687.72
2023-04-29T13:37:57.047Z,98676.19
2023-04-29T13:40:27.486Z,98674.66
2023-04-29T13:43:02.119Z,98666.69
2023-04-29T13:45:32.668Z,98673.13
2023-04-29T13:48:09.576Z,98663.25
2023-04-29T13:56:28.419Z,98676.16
2023-04-29T14:01:17.150Z,98660.31
2023-04-29T14:03:45.332Z,98658.78
2023-04-29T14:06:11.998Z,98659.06
2023-04-29T14:08:38.794Z,98652.63
2023-04-29T14:11:05.312Z,98646.50
2023-04-29T14:13:31.765Z,98645.66
2023-04-29T14:15:58.423Z,98637.22
2023-04-29T14:18:24.906Z,98632.75
2023-04-29T14:20:51.482Z,98624.03
2023-04-29T14:23:17.977Z,98619.50
2023-04-29T14:25:44.408Z,98616.72
2023-04-29T14:28:11.880Z,98611.00
2023-04-29T14:30:38.856Z,98613.97
2023-04-29T14:33:05.321Z,98619.84
2023-04-29T14:35:31.813Z,98627.41
2023-04-29T14:37:58.509Z,98622.63
2023-04-29T14:40:24.972Z,98631.03
2023-04-29T14:42:51.398Z,98616.97
2023-04-29T14:45:18.175Z,98622.28
2023-04-29T14:47:44.692Z,98622.84
2023-04-29T14:50:13.583Z,98625.66
2023-04-29T14:52:40.350Z,98629.59
2023-04-29T14:55:06.838Z,98622.84
2023-04-29T14:57:33.403Z,98617.81
2023-04-29T14:59:59.856Z,98620.50
2023-04-29T15:02:26.270Z,98621.47
2023-04-29T15:04:52.819Z,98620.66
2023-04-29T15:07:19.906Z,98610.81
2023-04-29T15:09:46.470Z,98603.53
2023-04-29T15:12:13.026Z,98604.22
2023-04-29T15:14:39.449Z,98611.00
2023-04-29T15:17:05.949Z,98686.31
2023-04-29T15:19:32.598Z,98714.38
2023-04-29T15:21:59.430Z,98703.50
2023-04-29T15:24:25.896Z,98737.41
2023-04-29T15:26:54.683Z,98732.94
2023-04-29T15:29:21.180Z,98744.63
2023-04-29T15:31:47.806Z,98747.16
2023-04-29T15:34:14.502Z,98746.06
2023-04-29T15:36:40.962Z,98732.28
2023-04-29T15:39:07.579Z,98727.50
2023-04-29T15:41:34.160Z,98724.31
2023-04-29T15:44:00.648Z,98715.31
2023-04-29T15:46:27.183Z,98722.06
2023-04-29T15:48:53.654Z,98716.94
2023-04-29T15:51:20.045Z,98726.66
2023-04-29T15:53:48.666Z,98713.84
2023-04-29T15:56:15.491Z,98712.03
2023-04-29T15:58:42.010Z,98724.16
2023-04-29T16:01:11.673Z,98726.84
2023-04-29T16:03:38.413Z,98733.19
2023-04-29T16:06:04.807Z,98740.84
2023-04-29T16:08:31.817Z,98728.84
2023-04-29T16:10:58.262Z,98731.00
2023-04-29T16:13:24.717Z,98729.69
2023-04-29T16:15:51.524Z,98726.84
2023-04-29T16:18:18.284Z,98722.34
2023-04-29T16:20:44.868Z,98719.63
2023-04-29T16:23:11.454Z,98725.22
2023-04-29T16:25:38.029Z,98731.16
2023-04-29T16:28:04.463Z,98739.94
2023-04-29T16:30:31.177Z,98744.16
2023-04-29T16:32:57.709Z,98750.69
2023-04-29T16:35:24.174Z,98750.44
2023-04-29T16:37:51.104Z,98752.78
2023-04-29T16:40:17.543Z,98752.66
2023-04-29T16:42:44.003Z,98760.50
2023-04-29T16:45:10.437Z,98755.97
2023-04-29T16:47:36.958Z,98757.78
2023-04-29T16:50:03.434Z,98762.50
2023-04-29T16:52:30.058Z,98761.34
2023-04-29T16:54:56.640Z,98759.59
2023-04-29T16:57:23.230Z,98764.25
2023-04-29T16:59:52.774Z,98764.06
2023-04-29T17:02:19.369Z,98768.94
2023-04-29T17:04:46.264Z,98769.94
2023-04-29T17:07:12.849Z,98765.31
2023-04-29T17:09:39.443Z,98764.06
2023-04-29T17:12:05.882Z,98780.72
2023-04-29T17:14:33.585Z,98777.59
2023-04-29T17:17:02.400Z,98788.69
2023-04-29T17:19:28.849Z,98800.16
2023-04-29T17:21:55.290Z,98801.28
2023-04-29T17:24:22.749Z,98802.63
2023-04-29T17:26:49.496Z,98801.41
2023-04-29T17:29:16.046Z,98804.13
2023-04-29T17:31:42.504Z,98808.91
2023-04-29T17:34:09.371Z,98804.28
2023-04-29T17:36:36.928Z,98818.28
2023-04-29T17:39:03.511Z,98814.09
2023-04-29T17:41:30.299Z,98815.28
2023-04-29T17:43:57.228Z,98812.88
2023-04-29T17:46:24.299Z,98804.81
2023-04-29T17:48:50.911Z,98808.81
2023-04-29T17:51:17.437Z,98807.50
2023-04-29T17:53:43.936Z,98802.47
2023-04-29T17:56:10.688Z,98817.19
2023-04-29T17:58:37.642Z,98816.31
2023-04-29T18:01:04.947Z,98824.78
2023-04-29T18:03:31.605Z,98825.50
2023-04-29T18:05:58.207Z,98837.97
2023-04-29T18:08:25.127Z,98831.94
2023-04-29T18:10:51.682Z,98830.34
2023-04-29T18:13:19.536Z,98843.50
2023-04-29T18:15:46.026Z,98841.25
2023-04-29T18:18:12.913Z,98837.03
2023-04-29T18:20:39.419Z,98843.66
2023-04-29T18:23:06.226Z,98839.78
2023-04-29T18:25:32.741Z,98847.28
2023-04-29T18:28:18.863Z,98856.72
2023-04-29T18:30:45.731Z,98851.72
2023-04-29T18:33:12.661Z,98852.84
2023-04-29T18:35:39.651Z,98857.66
2023-04-29T18:38:06.105Z,98859.22
2023-04-29T18:40:32.836Z,98863.56
2023-04-29T18:42:59.526Z,98865.88
2023-04-29T18:45:25.958Z,98875.16
2023-04-29T18:47:52.911Z,98873.00
2023-04-29T18:50:19.481Z,98869.84
2023-04-29T18:52:46.177Z,98872.16
2023-04-29T18:55:12.612Z,98876.22
2023-04-29T18:57:39.120Z,98876.22
2023-04-29T19:00:06.283Z,98882.75
2023-04-29T19:02:32.844Z,98886.38
2023-04-29T19:04:59.873Z,98898.19
2023-04-29T19:07:26.798Z,98897.81
2023-04-29T19:09:55.669Z,98891.41
2023-04-29T19:12:22.685Z,98905.28
2023-04-29T19:14:49.214Z,98911.78
2023-04-29T19:17:16.174Z,98913.56
2023-04-29T19:19:43.159Z,98911.94
2023-04-29T19:22:10.106Z,98917.00
2023-04-29T19:24:36.867Z,98915.69
2023-04-29T19:27:06.143Z,98922.91
2023-04-29T19:29:33.084Z,98930.22
2023-04-29T19:32:00.384Z,98930.75
2023-04-29T19:34:27.165Z,98938.50
2023-04-29T19:36:53.616Z,98939.69
2023-04-29T19:39:20.259Z,98939.38
2023-04-29T19:41:46.946Z,98942.75
2023-04-29T19:44:13.872Z,98934.25
2023-04-29T19:46:40.453Z,98933.50
2023-04-29T19:49:08.156Z,98930.06
2023-04-29T19:51:34.990Z,98939.16
2023-04-29T19:54:02.050Z,98939.47
2023-04-29T19:56:28.812Z,98931.88
2023-04-29T19:58:55.267Z,98941.00
2023-04-29T20:01:21.695Z,98943.94
2023-04-29T20:03:50.330Z,98943.50
2023-04-29T20:06:17.205Z,98950.81
2023-04-29T20:08:44.207Z,98958.63
2023-04-29T20:11:10.775Z,98959.47
2023-04-29T20:13:38.814Z,98958.78
2023-04-29T20:16:06.010Z,98960.66
2023-04-29T20:18:33.474Z,98967.72
2023-04-29T20:20:59.971Z,98965.94
2023-04-29T20:23:26.494Z,98979.31
2023-04-29T20:25:55.913Z,98978.00
2023-04-29T20:28:24.289Z,98984.16
2023-04-29T20:30:50.837Z,98982.06
2023-04-29T20:33:17.343Z,98991.34
2023-04-29T20:35:43.811Z,98986.06
2023-04-29T20:38:10.579Z,98983.28
2023-04-29T20:40:37.149Z,98994.00
2023-04-29T20:43:04.994Z,98989.69
2023-04-29T20:45:33.997Z,98987.88
2023-04-29T20:48:02.768Z,98996.44
2023-04-29T20:50:29.421Z,98997.47
2023-04-29T20:52:55.884Z,98999.06
2023-04-29T20:55:22.354Z,98987.75
2023-04-29T20:57:48.888Z,98997.72
2023-04-29T21:00:15.569Z,98988.81
2023-04-29T21:02:42.199Z,98996.53
2023-04-29T21:05:08.715Z,99000.06
2023-04-29T21:07:35.399Z,98990.72
2023-04-29T21:10:01.933Z,98992.00
2023-04-29T21:12:28.544Z,98993.91
2023-04-29T21:14:55.028Z,99009.59
2023-04-29T21:17:21.479Z,99012.09
2023-04-29T21:19:48.575Z,99003.22
2023-04-29T21:22:14.998Z,98995.06
2023-04-29T21:24:41.708Z,98991.13
2023-04-29T21:27:08.450Z,99002.03
2023-04-29T21:29:34.932Z,99019.88
2023-04-29T21:32:01.471Z,99014.78
2023-04-29T21:34:27.888Z,99020.19
2023-04-29T21:36:54.344Z,99021.00
2023-04-29T21:39:20.950Z,99013.81
2023-04-29T21:41:47.416Z,99030.19
2023-04-29T21:44:14.348Z,99028.09
2023-04-29T21:46:41.008Z,99035.41
2023-04-29T21:49:07.823Z,99022.00
2023-04-29T21:51:34.214Z,99022.72
2023-04-29T21:54:01.159Z,99025.06
2023-04-29T21:56:27.690Z,99030.28
2023-04-29T21:58:54.100Z,99040.50
2023-04-29T22:01:20.571Z,99033.09
2023-04-29T22:03:47.145Z,99043.41
2023-04-29T22:06:14.694Z,99044.72
2023-04-29T22:08:41.108Z,99040.03
2023-04-29T22:11:07.558Z,99054.09
2023-04-29T22:13:34.069Z,99039.25
2023-04-29T22:16:00.575Z,99052.97
2023-04-29T22:18:27.015Z,99040.31
2023-04-29T22:20:53.538Z,99036.69
2023-04-29T22:23:19.951Z,99036.56
2023-04-29T22:25:46.707Z,99048.97
2023-04-29T22:28:13.359Z,99049.72
2023-04-29T22:30:39.791Z,99048.75
2023-04-29T22:33:06.343Z,99046.91
2023-04-29T22:35:32.914Z,99056.16
2023-04-29T22:37:59.538Z,99055.69
2023-04-29T22:40:25.949Z,99053.63
2023-04-29T22:42:52.416Z,99049.34
2023-04-29T22:45:18.862Z,99063.25
2023-04-29T22:47:47.512Z,99047.94
2023-04-29T22:50:13.971Z,99064.47
2023-04-29T22:52:40.464Z,99058.91
2023-04-29T22:55:07.078Z,99056.34
2023-04-29T22:57:33.513Z,99062.22
2023-04-29T23:00:00.164Z,99063.00
2023-04-29T23:02:26.677Z,99070.84
2023-04-29T23:04:53.361Z,99071.00
2023-04-29T23:07:19.991Z,99065.25
2023-04-29T23:09:46.586Z,99066.72
2023-04-29T23:12:13.059Z,99069.81
2023-04-29T23:14:39.673Z,99070.50
2023-04-29T23:17:06.140Z,99065.50
2023-04-29T23:19:32.651Z,99059.47
2023-04-29T23:21:59.110Z,99064.13
2023-04-29T23:24:25.512Z,99064.06
2023-04-29T23:26:52.019Z,99074.56
2023-04-29T23:29:18.392Z,99055.44
2023-04-29T23:31:46.025Z,99067.28
2023-04-29T23:34:12.477Z,99072.75
2023-04-29T23:36:38.966Z,99080.84
2023-04-29T23:39:05.755Z,99082.59
2023-04-29T23:41:32.192Z,99085.56
2023-04-29T23:43:58.681Z,99082.97
2023-04-29T23:46:25.156Z,99083.47
2023-04-29T23:48:51.627Z,99093.41
2023-04-29T23:51:18.082Z,99090.03
2023-04-29T23:53:44.648Z,99104.50
2023-04-29T23:56:11.115Z,99099.03
2023-04-29T23:58:37.581Z,99106.53
